createdAt,value
2023-05-27T00:00:35.714Z,149.94
2023-05-27T00:01:35.692Z,147.77
2023-05-27T00:02:35.827Z,146.14
2023-05-27T00:03:35.898Z,146.86
2023-05-27T00:04:35.737Z,148.04
2023-05-27T00:05:35.723Z,147.71
2023-05-27T00:06:35.762Z,146.77
2023-05-27T00:07:35.805Z,146.66
2023-05-27T00:08:35.844Z,149.66
2023-05-27T00:09:35.898Z,151.15
2023-05-27T00:10:35.955Z,153.49
2023-05-27T00:11:35.988Z,155.03
2023-05-27T00:12:36.032Z,154.85
2023-05-27T00:13:36.081Z,159.13
2023-05-27T00:14:36.098Z,160.26
2023-05-27T00:15:36.144Z,159.45
2023-05-27T00:16:36.196Z,159.41
2023-05-27T00:17:36.274Z,156.24
2023-05-27T00:18:36.301Z,158.11
2023-05-27T00:19:36.314Z,157.05
2023-05-27T00:20:36.472Z,159.56
2023-05-27T00:21:36.447Z,160.89
2023-05-27T00:22:36.499Z,159.69
2023-05-27T00:23:36.508Z,161.01
2023-05-27T00:24:36.518Z,159.76
2023-05-27T00:25:36.514Z,160.42
2023-05-27T00:26:36.537Z,159.14
2023-05-27T00:27:36.548Z,160.02
2023-05-27T00:28:36.505Z,160.00
2023-05-27T00:29:36.504Z,159.30
2023-05-27T00:30:36.533Z,161.52
2023-05-27T00:31:36.561Z,161.73
2023-05-27T00:32:36.555Z,159.89
2023-05-27T00:33:36.516Z,158.12
2023-05-27T00:34:36.546Z,158.76
2023-05-27T00:35:36.546Z,161.23
2023-05-27T00:36:36.525Z,160.07
2023-05-27T00:37:36.557Z,162.01
2023-05-27T00:38:36.522Z,165.05
2023-05-27T00:39:36.528Z,164.38
2023-05-27T00:40:37.386Z,165.30
2023-05-27T00:41:36.532Z,166.11
2023-05-27T00:42:36.533Z,168.09
2023-05-27T00:43:36.554Z,167.21
2023-05-27T00:44:36.555Z,166.21
2023-05-27T00:45:36.584Z,166.98
2023-05-27T00:46:36.664Z,166.97
2023-05-27T00:47:36.625Z,168.56
2023-05-27T00:48:36.583Z,170.45
2023-05-27T00:49:36.615Z,168.17
2023-05-27T00:50:36.567Z,167.45
2023-05-27T00:51:36.632Z,170.57
2023-05-27T00:52:36.591Z,168.13
2023-05-27T00:53:36.595Z,167.16
2023-05-27T00:54:36.618Z,169.96
2023-05-27T00:55:36.597Z,169.32
2023-05-27T00:56:36.628Z,168.96
2023-05-27T00:57:36.628Z,168.58
2023-05-27T00:58:36.649Z,168.45
2023-05-27T00:59:36.648Z,171.23
2023-05-27T01:00:36.628Z,172.71
2023-05-27T01:01:36.692Z,173.41
2023-05-27T01:02:36.759Z,172.77
2023-05-27T01:03:36.795Z,171.87
2023-05-27T01:04:36.657Z,173.39
2023-05-27T01:05:36.635Z,175.72
2023-05-27T01:06:36.636Z,173.39
2023-05-27T01:07:36.649Z,169.11
2023-05-27T01:08:36.614Z,169.07
2023-05-27T01:09:36.669Z,162.45
2023-05-27T01:10:36.633Z,161.69
2023-05-27T01:11:36.661Z,163.87
2023-05-27T01:12:36.653Z,165.50
2023-05-27T01:13:36.652Z,165.95
2023-05-27T01:14:36.649Z,166.72
2023-05-27T01:15:36.680Z,166.06
2023-05-27T01:16:36.727Z,163.78
2023-05-27T01:17:36.706Z,161.42
2023-05-27T01:18:36.764Z,162.22
2023-05-27T01:19:36.861Z,158.08
2023-05-27T01:20:36.950Z,160.14
2023-05-27T01:21:36.909Z,161.97
2023-05-27T01:22:36.921Z,163.91
2023-05-27T01:23:36.919Z,162.09
2023-05-27T01:24:36.917Z,164.80
2023-05-27T01:25:36.960Z,166.04
2023-05-27T01:26:36.973Z,168.33
2023-05-27T01:27:36.920Z,169.83
2023-05-27T01:28:36.992Z,169.46
2023-05-27T01:29:36.932Z,169.84
2023-05-27T01:30:36.939Z,170.93
2023-05-27T01:31:36.973Z,171.58
2023-05-27T01:32:36.999Z,170.71
2023-05-27T01:33:36.964Z,172.22
2023-05-27T01:34:36.972Z,170.95
2023-05-27T01:35:36.977Z,174.64
2023-05-27T01:36:36.986Z,174.78
2023-05-27T01:37:37.007Z,173.23
2023-05-27T01:38:37.082Z,173.89
2023-05-27T01:39:37.084Z,175.02
2023-05-27T01:40:37.144Z,175.83
2023-05-27T01:41:37.183Z,177.13
2023-05-27T01:42:37.286Z,175.61
2023-05-27T01:43:37.285Z,175.47
2023-05-27T01:44:37.335Z,176.78
2023-05-27T01:45:37.399Z,179.51
2023-05-27T01:46:37.502Z,178.07
2023-05-27T01:47:37.562Z,180.34
2023-05-27T01:48:37.530Z,178.13
2023-05-27T01:49:37.610Z,177.33
2023-05-27T01:50:37.708Z,178.10
2023-05-27T01:51:37.726Z,178.46
2023-05-27T01:52:37.732Z,179.83
2023-05-27T01:53:37.806Z,180.32
2023-05-27T01:54:37.852Z,182.86
2023-05-27T01:55:37.908Z,182.06
2023-05-27T01:56:37.951Z,181.69
2023-05-27T01:57:38.004Z,181.11
2023-05-27T01:58:38.038Z,184.04
2023-05-27T01:59:38.017Z,183.04
2023-05-27T02:00:38.106Z,184.56
2023-05-27T02:01:38.019Z,183.68
2023-05-27T02:02:38.055Z,184.20
2023-05-27T02:03:38.176Z,183.35
2023-05-27T02:04:38.083Z,182.48
2023-05-27T02:05:38.114Z,182.60
2023-05-27T02:06:38.161Z,183.85
2023-05-27T02:07:38.215Z,183.06
2023-05-27T02:08:38.264Z,182.82
2023-05-27T02:09:38.290Z,181.42
2023-05-27T02:10:38.416Z,180.60
2023-05-27T02:11:38.413Z,181.04
2023-05-27T02:12:38.483Z,180.45
2023-05-27T02:13:38.522Z,182.03
2023-05-27T02:14:38.697Z,183.13
2023-05-27T02:15:38.573Z,183.89
2023-05-27T02:16:38.664Z,182.34
2023-05-27T02:17:38.738Z,181.96
2023-05-27T02:18:38.740Z,183.43
2023-05-27T02:19:38.813Z,184.44
2023-05-27T02:20:38.958Z,184.06
2023-05-27T02:21:38.873Z,181.82
2023-05-27T02:22:38.891Z,181.40
2023-05-27T02:23:38.894Z,179.97
2023-05-27T02:24:38.890Z,180.25
2023-05-27T02:25:38.985Z,182.51
2023-05-27T02:26:39.065Z,182.70
2023-05-27T02:27:39.067Z,182.66
2023-05-27T02:28:39.144Z,181.68
2023-05-27T02:29:39.142Z,183.58
2023-05-27T02:30:39.256Z,183.52
2023-05-27T02:31:39.304Z,182.20
2023-05-27T02:32:39.386Z,184.39
2023-05-27T02:33:39.348Z,189.17
2023-05-27T02:34:39.418Z,188.01
2023-05-27T02:35:39.439Z,187.22
2023-05-27T02:36:39.521Z,186.55
2023-05-27T02:37:39.551Z,188.72
2023-05-27T02:38:39.599Z,187.62
2023-05-27T02:39:39.624Z,186.99
2023-05-27T02:40:39.671Z,185.98
2023-05-27T02:41:39.722Z,187.30
2023-05-27T02:42:39.805Z,189.55
2023-05-27T02:43:39.838Z,189.85
2023-05-27T02:44:39.856Z,187.96
2023-05-27T02:45:39.887Z,190.32
2023-05-27T02:46:39.907Z,192.24
2023-05-27T02:47:39.957Z,190.50
2023-05-27T02:48:39.896Z,190.50
2023-05-27T02:49:39.936Z,189.72
2023-05-27T02:50:39.998Z,191.09
2023-05-27T02:51:40.044Z,192.33
2023-05-27T02:52:40.062Z,188.03
2023-05-27T02:53:40.134Z,191.16
2023-05-27T02:54:40.177Z,189.99
2023-05-27T02:55:40.202Z,191.32
2023-05-27T02:56:40.260Z,191.20
2023-05-27T02:57:40.301Z,190.70
2023-05-27T02:58:40.384Z,189.72
2023-05-27T02:59:40.401Z,192.67
2023-05-27T03:00:40.448Z,193.63
2023-05-27T03:01:40.520Z,193.90
2023-05-27T03:02:40.563Z,194.54
2023-05-27T03:03:40.726Z,195.25
2023-05-27T03:04:40.637Z,191.16
2023-05-27T03:05:40.716Z,191.96
2023-05-27T03:06:40.758Z,192.30
2023-05-27T03:07:40.816Z,192.27
2023-05-27T03:08:40.852Z,194.41
2023-05-27T03:09:40.903Z,192.82
2023-05-27T03:10:40.916Z,191.26
2023-05-27T03:11:40.991Z,191.81
2023-05-27T03:12:41.064Z,191.37
2023-05-27T03:13:41.089Z,192.67
2023-05-27T03:14:41.152Z,192.87
2023-05-27T03:15:41.227Z,194.61
2023-05-27T03:16:41.302Z,193.55
2023-05-27T03:17:41.336Z,194.86
2023-05-27T03:18:41.366Z,195.35
2023-05-27T03:19:41.370Z,195.36
2023-05-27T03:20:41.551Z,194.96
2023-05-27T03:21:41.478Z,197.24
2023-05-27T03:22:41.516Z,197.83
2023-05-27T03:23:41.560Z,196.26
2023-05-27T03:24:41.628Z,195.76
2023-05-27T03:25:41.724Z,194.85
2023-05-27T03:26:41.702Z,195.71
2023-05-27T03:27:41.788Z,193.94
2023-05-27T03:28:41.814Z,194.40
2023-05-27T03:29:41.846Z,193.71
2023-05-27T03:30:41.912Z,194.82
2023-05-27T03:31:41.963Z,194.82
2023-05-27T03:32:42.052Z,193.79
2023-05-27T03:33:42.020Z,195.53
2023-05-27T03:34:42.072Z,196.57
2023-05-27T03:35:42.099Z,195.23
2023-05-27T03:36:42.139Z,196.19
2023-05-27T03:37:42.221Z,196.96
2023-05-27T03:38:42.244Z,197.97
2023-05-27T03:39:42.312Z,197.74
2023-05-27T03:40:42.348Z,196.84
2023-05-27T03:41:42.387Z,197.40
2023-05-27T03:42:42.425Z,196.63
2023-05-27T03:43:42.421Z,198.00
2023-05-27T03:44:42.433Z,201.90
2023-05-27T03:45:42.526Z,196.47
2023-05-27T03:46:42.504Z,196.11
2023-05-27T03:47:42.539Z,195.59
2023-05-27T03:48:42.548Z,193.87
2023-05-27T03:49:42.599Z,193.86
2023-05-27T03:50:43.743Z,191.81
2023-05-27T03:51:42.743Z,191.10
2023-05-27T03:52:42.691Z,193.07
2023-05-27T03:53:42.695Z,192.89
2023-05-27T03:54:42.709Z,192.68
2023-05-27T03:55:42.776Z,193.38
2023-05-27T03:56:42.831Z,192.85
2023-05-27T03:57:42.879Z,194.38
2023-05-27T03:58:44.413Z,195.51
2023-05-27T03:59:42.904Z,194.09
2023-05-27T04:00:42.894Z,195.08
2023-05-27T04:01:42.897Z,194.64
2023-05-27T04:02:42.892Z,195.51
2023-05-27T04:03:42.946Z,196.77
2023-05-27T04:04:42.942Z,197.26
2023-05-27T04:05:42.882Z,197.19
2023-05-27T04:06:42.850Z,197.06
2023-05-27T04:07:42.858Z,196.75
2023-05-27T04:08:42.838Z,196.74
2023-05-27T04:09:42.849Z,198.63
2023-05-27T04:10:42.825Z,198.86
2023-05-27T04:11:42.821Z,199.95
2023-05-27T04:12:42.821Z,198.72
2023-05-27T04:13:42.815Z,199.24
2023-05-27T04:14:42.774Z,198.67
2023-05-27T04:15:42.771Z,199.59
2023-05-27T04:16:42.872Z,197.23
2023-05-27T04:17:42.864Z,198.21
2023-05-27T04:18:42.777Z,196.43
2023-05-27T04:19:42.793Z,192.75
2023-05-27T04:20:42.840Z,191.31
2023-05-27T04:21:42.735Z,193.08
2023-05-27T04:22:42.771Z,188.84
2023-05-27T04:23:42.716Z,189.72
2023-05-27T04:24:42.716Z,191.79
2023-05-27T04:25:42.745Z,191.91
2023-05-27T04:26:42.715Z,193.12
2023-05-27T04:27:42.729Z,194.56
2023-05-27T04:28:42.686Z,195.75
2023-05-27T04:29:42.716Z,196.53
2023-05-27T04:30:42.700Z,199.17
2023-05-27T04:31:42.782Z,197.62
2023-05-27T04:32:42.667Z,201.21
2023-05-27T04:33:42.684Z,203.06
2023-05-27T04:34:42.692Z,202.80
2023-05-27T04:35:42.674Z,203.62
2023-05-27T04:36:42.690Z,205.32
2023-05-27T04:37:42.647Z,205.09
2023-05-27T04:38:42.642Z,205.01
2023-05-27T04:39:42.643Z,204.08
2023-05-27T04:40:42.637Z,204.07
2023-05-27T04:41:42.652Z,205.53
2023-05-27T04:42:42.612Z,205.41
2023-05-27T04:43:42.614Z,207.08
2023-05-27T04:44:42.595Z,205.95
2023-05-27T04:45:42.599Z,205.96
2023-05-27T04:46:42.670Z,205.67
2023-05-27T04:47:42.595Z,203.60
2023-05-27T04:48:42.578Z,205.39
2023-05-27T04:49:42.549Z,205.60
2023-05-27T04:50:42.531Z,204.27
2023-05-27T04:51:42.567Z,204.78
2023-05-27T04:52:42.573Z,204.81
2023-05-27T04:53:42.545Z,206.29
2023-05-27T04:54:42.579Z,205.06
2023-05-27T04:55:42.774Z,204.48
2023-05-27T04:56:42.535Z,206.28
2023-05-27T04:57:42.633Z,206.61
2023-05-27T04:58:42.519Z,204.60
2023-05-27T04:59:42.498Z,206.53
2023-05-27T05:00:42.520Z,206.00
2023-05-27T05:01:42.621Z,204.31
2023-05-27T05:02:42.669Z,203.59
2023-05-27T05:03:42.705Z,201.76
2023-05-27T05:04:42.719Z,201.44
2023-05-27T05:05:42.739Z,200.17
2023-05-27T05:06:42.773Z,196.32
2023-05-27T05:07:42.802Z,195.21
2023-05-27T05:08:42.808Z,195.64
2023-05-27T05:09:42.805Z,195.82
2023-05-27T05:10:42.835Z,196.52
2023-05-27T05:11:42.848Z,199.54
2023-05-27T05:12:42.899Z,197.79
2023-05-27T05:13:42.902Z,197.30
2023-05-27T05:14:42.955Z,197.94
2023-05-27T05:15:43.021Z,199.87
2023-05-27T05:16:43.084Z,198.43
2023-05-27T05:17:43.124Z,198.76
2023-05-27T05:18:43.127Z,198.12
2023-05-27T05:19:43.172Z,198.15
2023-05-27T05:20:43.305Z,197.87
2023-05-27T05:21:43.239Z,196.83
2023-05-27T05:22:43.295Z,198.16
2023-05-27T05:23:43.329Z,195.99
2023-05-27T05:24:43.373Z,194.26
2023-05-27T05:25:43.394Z,193.91
2023-05-27T05:26:43.436Z,194.05
2023-05-27T05:27:43.450Z,194.11
2023-05-27T05:28:43.529Z,193.61
2023-05-27T05:29:43.540Z,194.98
2023-05-27T05:30:43.582Z,195.94
2023-05-27T05:31:43.651Z,193.10
2023-05-27T05:32:43.689Z,193.02
2023-05-27T05:33:43.707Z,191.56
2023-05-27T05:34:43.753Z,188.91
2023-05-27T05:35:43.786Z,180.35
2023-05-27T05:36:43.815Z,177.00
2023-05-27T05:37:43.865Z,174.45
2023-05-27T05:38:43.886Z,170.76
2023-05-27T05:39:43.964Z,170.76
2023-05-27T05:40:43.956Z,169.90
2023-05-27T05:41:44.024Z,170.38
2023-05-27T05:42:44.078Z,173.59
2023-05-27T05:43:44.082Z,172.91
2023-05-27T05:44:44.140Z,172.97
2023-05-27T05:45:44.153Z,173.71
2023-05-27T05:46:44.227Z,173.49
2023-05-27T05:47:44.179Z,169.63
2023-05-27T05:48:44.157Z,169.59
2023-05-27T05:49:44.141Z,166.34
2023-05-27T05:50:44.160Z,166.67
2023-05-27T05:51:44.138Z,164.26
2023-05-27T05:52:44.141Z,162.20
2023-05-27T05:53:44.130Z,164.80
2023-05-27T05:54:44.150Z,163.36
2023-05-27T05:55:44.212Z,164.31
2023-05-27T05:56:44.271Z,163.40
2023-05-27T05:57:44.283Z,161.82
2023-05-27T05:58:44.323Z,159.71
2023-05-27T05:59:44.389Z,159.28
2023-05-27T06:00:44.399Z,155.65
2023-05-27T06:01:44.506Z,153.71
2023-05-27T06:02:44.616Z,159.71
2023-05-27T06:03:44.806Z,161.42
2023-05-27T06:04:44.596Z,159.07
2023-05-27T06:05:44.649Z,156.42
2023-05-27T06:06:44.664Z,154.69
2023-05-27T06:07:44.709Z,157.07
2023-05-27T06:08:44.765Z,156.75
2023-05-27T06:09:44.787Z,156.17
2023-05-27T06:10:44.833Z,148.87
2023-05-27T06:11:44.914Z,141.31
2023-05-27T06:12:44.917Z,143.14
2023-05-27T06:13:44.970Z,142.52
2023-05-27T06:14:45.001Z,142.73
2023-05-27T06:15:45.042Z,145.23
2023-05-27T06:16:45.086Z,153.43
2023-05-27T06:17:45.180Z,151.63
2023-05-27T06:18:45.169Z,148.18
2023-05-27T06:19:45.224Z,145.67
2023-05-27T06:20:45.312Z,146.68
2023-05-27T06:21:45.292Z,145.29
2023-05-27T06:22:45.310Z,147.82
2023-05-27T06:23:45.373Z,149.21
2023-05-27T06:24:45.388Z,149.21
2023-05-27T06:25:45.388Z,146.74
2023-05-27T06:26:45.408Z,145.90
2023-05-27T06:27:45.362Z,137.59
2023-05-27T06:28:45.400Z,139.74
2023-05-27T06:29:45.443Z,138.31
2023-05-27T06:30:45.382Z,134.64
2023-05-27T06:31:45.393Z,132.82
2023-05-27T06:32:45.402Z,131.73
2023-05-27T06:33:45.391Z,137.45
2023-05-27T06:34:45.428Z,141.48
2023-05-27T06:35:45.408Z,133.84
2023-05-27T06:36:45.453Z,132.18
2023-05-27T06:37:47.395Z,133.05
2023-05-27T06:38:45.408Z,132.67
2023-05-27T06:39:45.421Z,133.60
2023-05-27T06:40:45.417Z,132.84
2023-05-27T06:41:45.408Z,134.12
2023-05-27T06:42:45.405Z,134.26
2023-05-27T06:43:45.361Z,135.70
2023-05-27T06:44:45.371Z,142.97
2023-05-27T06:45:59.458Z,141.96
2023-05-27T06:46:46.379Z,139.48
2023-05-27T06:47:45.400Z,135.37
2023-05-27T06:48:45.348Z,134.40
2023-05-27T06:49:45.349Z,131.19
2023-05-27T06:50:45.323Z,129.68
2023-05-27T06:51:45.325Z,134.16
2023-05-27T06:52:45.331Z,129.12
2023-05-27T06:53:45.307Z,126.55
2023-05-27T06:54:45.438Z,128.10
2023-05-27T06:55:45.286Z,126.48
2023-05-27T06:56:45.295Z,123.19
2023-05-27T06:57:45.302Z,117.99
2023-05-27T06:58:45.253Z,116.27
2023-05-27T06:59:45.262Z,114.90
2023-05-27T07:00:45.253Z,119.24
2023-05-27T07:01:45.402Z,117.12
2023-05-27T07:02:45.336Z,107.21
2023-05-27T07:03:45.297Z,108.62
2023-05-27T07:04:45.344Z,109.50
2023-05-27T07:05:45.424Z,114.50
2023-05-27T07:06:45.434Z,118.37
2023-05-27T07:07:45.460Z,122.64
2023-05-27T07:08:45.459Z,130.04
2023-05-27T07:09:45.513Z,129.96
2023-05-27T07:10:45.546Z,131.18
2023-05-27T07:11:45.554Z,131.29
2023-05-27T07:12:45.616Z,128.79
2023-05-27T07:13:45.634Z,133.07
2023-05-27T07:14:45.690Z,135.71
2023-05-27T07:15:45.755Z,138.80
2023-05-27T07:16:45.734Z,136.64
2023-05-27T07:17:45.824Z,138.25
2023-05-27T07:18:45.818Z,143.87
2023-05-27T07:19:45.883Z,145.39
2023-05-27T07:20:46.094Z,147.43
2023-05-27T07:21:45.962Z,146.63
2023-05-27T07:22:46.048Z,146.87
2023-05-27T07:23:46.073Z,137.96
2023-05-27T07:24:46.162Z,131.42
2023-05-27T07:25:46.191Z,115.40
2023-05-27T07:26:46.278Z,103.24
2023-05-27T07:27:46.325Z,104.64
2023-05-27T07:28:46.304Z,100.28
2023-05-27T07:29:46.312Z,106.23
2023-05-27T07:30:46.366Z,111.29
2023-05-27T07:31:46.445Z,101.49
2023-05-27T07:32:46.917Z,89.36
2023-05-27T07:33:46.473Z,75.16
2023-05-27T07:34:46.456Z,69.87
2023-05-27T07:35:46.441Z,65.40
2023-05-27T07:36:46.479Z,68.97
2023-05-27T07:37:46.450Z,84.12
2023-05-27T07:38:46.428Z,94.06
2023-05-27T07:39:46.467Z,102.62
2023-05-27T07:40:46.426Z,104.28
2023-05-27T07:41:46.428Z,108.55
2023-05-27T07:42:46.424Z,102.43
2023-05-27T07:43:46.399Z,100.44
2023-05-27T07:44:46.385Z,88.70
2023-05-27T07:45:46.414Z,69.32
2023-05-27T07:46:46.414Z,76.42
2023-05-27T07:47:46.409Z,90.96
2023-05-27T07:48:46.354Z,99.81
2023-05-27T07:49:46.372Z,104.88
2023-05-27T07:50:46.332Z,94.16
2023-05-27T07:51:46.341Z,84.49
2023-05-27T07:52:46.386Z,82.84
2023-05-27T07:53:46.351Z,73.09
2023-05-27T07:54:54.424Z,74.19
2023-05-27T07:55:47.329Z,74.66
2023-05-27T07:56:46.328Z,77.03
2023-05-27T07:57:46.314Z,80.64
2023-05-27T07:58:46.321Z,86.09
2023-05-27T07:59:46.327Z,91.20
2023-05-27T08:00:46.369Z,93.50
2023-05-27T08:01:46.286Z,98.93
2023-05-27T08:02:46.360Z,92.73
2023-05-27T08:03:46.356Z,72.20
2023-05-27T08:04:46.567Z,64.07
2023-05-27T08:05:46.247Z,69.07
2023-05-27T08:06:46.317Z,75.18
2023-05-27T08:07:46.325Z,72.84
2023-05-27T08:08:46.389Z,81.14
2023-05-27T08:09:46.426Z,86.11
2023-05-27T08:10:46.442Z,90.77
2023-05-27T08:11:46.509Z,93.80
2023-05-27T08:12:46.563Z,93.62
2023-05-27T08:13:46.575Z,93.61
2023-05-27T08:14:46.624Z,87.93
2023-05-27T08:15:46.671Z,85.62
2023-05-27T08:16:46.698Z,87.00
2023-05-27T08:17:46.810Z,98.39
2023-05-27T08:18:46.833Z,111.42
2023-05-27T08:19:46.800Z,118.06
2023-05-27T08:20:46.922Z,120.83
2023-05-27T08:21:46.884Z,121.58
2023-05-27T08:22:46.886Z,123.93
2023-05-27T08:23:46.980Z,125.34
2023-05-27T08:24:46.965Z,120.44
2023-05-27T08:25:47.001Z,109.60
2023-05-27T08:26:47.023Z,74.22
2023-05-27T08:27:47.056Z,70.39
2023-05-27T08:28:47.065Z,61.85
2023-05-27T08:29:47.075Z,52.60
2023-05-27T08:30:47.140Z,54.94
2023-05-27T08:31:47.335Z,68.13
2023-05-27T08:32:47.766Z,85.90
2023-05-27T08:33:47.180Z,89.47
2023-05-27T08:34:47.234Z,83.92
2023-05-27T08:35:47.265Z,84.81
2023-05-27T08:36:47.293Z,66.25
2023-05-27T08:37:47.287Z,50.71
2023-05-27T08:38:47.336Z,64.54
2023-05-27T08:39:47.335Z,65.62
2023-05-27T08:40:47.336Z,67.90
2023-05-27T08:41:47.382Z,50.60
2023-05-27T08:42:47.424Z,60.29
2023-05-27T08:43:47.460Z,41.80
2023-05-27T08:44:47.455Z,25.00
2023-05-27T08:45:47.516Z,37.06
2023-05-27T08:46:47.614Z,44.61
2023-05-27T08:47:47.571Z,37.02
2023-05-27T08:48:47.555Z,23.98
2023-05-27T08:49:47.588Z,46.63
2023-05-27T08:50:47.572Z,24.08
2023-05-27T08:51:47.718Z,26.34
2023-05-27T08:52:47.636Z,38.26
2023-05-27T08:53:47.671Z,25.00
2023-05-27T08:54:47.661Z,20.97
2023-05-27T08:55:47.738Z,35.56
2023-05-27T08:56:47.731Z,50.52
2023-05-27T08:57:47.750Z,60.35
2023-05-27T08:58:47.745Z,64.90
2023-05-27T08:59:47.765Z,65.67
2023-05-27T09:00:47.925Z,70.86
2023-05-27T09:01:47.839Z,71.55
2023-05-27T09:02:47.873Z,73.71
2023-05-27T09:03:47.850Z,77.24
2023-05-27T09:04:47.861Z,71.43
2023-05-27T09:05:47.870Z,69.20
2023-05-27T09:06:47.892Z,72.79
2023-05-27T09:07:47.922Z,71.30
2023-05-27T09:08:51.143Z,73.42
2023-05-27T09:09:47.970Z,77.38
2023-05-27T09:10:48.035Z,74.16
2023-05-27T09:11:47.916Z,74.09
2023-05-27T09:12:47.940Z,69.46
2023-05-27T09:13:47.917Z,65.69
2023-05-27T09:14:47.906Z,72.55
2023-05-27T09:15:47.933Z,69.03
2023-05-27T09:16:47.960Z,71.72
2023-05-27T09:17:47.933Z,72.19
2023-05-27T09:18:48.000Z,45.32
2023-05-27T09:19:47.875Z,47.41
2023-05-27T09:20:48.022Z,52.98
2023-05-27T09:21:47.875Z,59.77
2023-05-27T09:22:47.862Z,59.73
2023-05-27T09:23:47.868Z,63.59
2023-05-27T09:24:47.858Z,52.42
2023-05-27T09:25:47.836Z,49.39
2023-05-27T09:26:47.864Z,25.20
2023-05-27T09:27:47.814Z,36.08
2023-05-27T09:28:47.797Z,46.40
2023-05-27T09:29:47.816Z,56.59
2023-05-27T09:30:47.922Z,61.20
2023-05-27T09:31:47.825Z,65.31
2023-05-27T09:32:47.872Z,53.01
2023-05-27T09:33:47.803Z,47.05
2023-05-27T09:34:47.800Z,39.85
2023-05-27T09:35:47.749Z,31.23
2023-05-27T09:36:47.789Z,39.75
2023-05-27T09:37:47.772Z,54.34
2023-05-27T09:38:47.752Z,59.26
2023-05-27T09:39:48.280Z,61.88
2023-05-27T09:40:47.753Z,66.08
2023-05-27T09:41:47.756Z,64.11
2023-05-27T09:42:47.715Z,50.23
2023-05-27T09:43:47.725Z,42.45
2023-05-27T09:44:47.701Z,46.68
2023-05-27T09:45:47.753Z,44.33
2023-05-27T09:46:47.738Z,53.28
2023-05-27T09:47:47.790Z,59.74
2023-05-27T09:48:47.674Z,63.66
2023-05-27T09:50:47.708Z,64.11
2023-05-27T09:51:47.681Z,64.40
2023-05-27T09:52:59.157Z,63.90
2023-05-27T09:53:48.677Z,60.68
2023-05-27T09:54:47.653Z,23.43
2023-05-27T09:55:47.649Z,11.65
2023-05-27T09:56:47.673Z,16.29
2023-05-27T09:57:47.645Z,2.76
2023-05-27T09:58:47.638Z,5.23
2023-05-27T09:59:47.614Z,17.80
2023-05-27T10:00:47.615Z,23.04
2023-05-27T10:01:47.665Z,38.87
2023-05-27T10:02:47.614Z,48.07
2023-05-27T10:03:47.602Z,51.13
2023-05-27T10:04:47.650Z,60.45
2023-05-27T10:05:47.623Z,69.21
2023-05-27T10:06:47.595Z,67.66
2023-05-27T10:08:08.806Z,67.77
2023-05-27T10:08:48.588Z,67.92
2023-05-27T10:09:49.155Z,68.32
2023-05-27T10:10:47.593Z,69.39
2023-05-27T10:11:47.560Z,71.69
2023-05-27T10:12:47.574Z,66.30
2023-05-27T10:13:47.571Z,42.59
2023-05-27T10:14:47.557Z,31.50
2023-05-27T10:15:47.539Z,25.52
2023-05-27T10:16:47.615Z,28.05
2023-05-27T10:17:47.536Z,36.32
2023-05-27T10:18:47.515Z,28.70
2023-05-27T10:19:47.506Z,29.79
2023-05-27T10:20:47.591Z,35.78
2023-05-27T10:21:47.488Z,39.20
2023-05-27T10:22:47.474Z,41.47
2023-05-27T10:23:47.513Z,11.68
2023-05-27T10:24:47.494Z,21.48
2023-05-27T10:25:47.544Z,13.23
2023-05-27T10:26:47.544Z,28.12
2023-05-27T10:27:47.588Z,34.68
2023-05-27T10:28:47.624Z,35.49
2023-05-27T10:29:47.642Z,33.64
2023-05-27T10:30:47.671Z,38.36
2023-05-27T10:31:50.959Z,34.81
2023-05-27T10:32:48.827Z,35.07
2023-05-27T10:33:47.699Z,34.99
2023-05-27T10:34:47.700Z,35.60
2023-05-27T10:35:47.669Z,3.20
2023-05-27T10:36:47.676Z,0.00
2023-05-27T10:37:47.671Z,14.19
2023-05-27T10:38:47.641Z,29.05
2023-05-27T10:39:47.637Z,26.95
2023-05-27T10:40:47.634Z,25.35
2023-05-27T10:41:47.629Z,25.00
2023-05-27T10:42:47.606Z,28.08
2023-05-27T10:43:47.617Z,34.67
2023-05-27T10:44:47.632Z,45.36
2023-05-27T10:45:47.684Z,44.65
2023-05-27T10:46:47.647Z,48.57
2023-05-27T10:47:47.662Z,47.32
2023-05-27T10:48:47.615Z,47.26
2023-05-27T10:49:47.573Z,46.72
2023-05-27T10:50:47.636Z,47.82
2023-05-27T10:51:47.582Z,33.01
2023-05-27T10:52:47.696Z,33.85
2023-05-27T10:53:50.684Z,38.03
2023-05-27T10:54:48.578Z,38.26
2023-05-27T10:55:47.550Z,38.79
2023-05-27T10:56:47.559Z,38.11
2023-05-27T10:57:47.530Z,31.21
2023-05-27T10:58:47.559Z,34.18
2023-05-27T10:59:47.545Z,12.99
2023-05-27T11:00:47.525Z,30.93
2023-05-27T11:01:47.527Z,40.20
2023-05-27T11:02:47.604Z,40.74
2023-05-27T11:03:47.709Z,40.80
2023-05-27T11:04:47.501Z,42.97
2023-05-27T11:05:47.506Z,48.14
2023-05-27T11:06:47.494Z,42.66
2023-05-27T11:07:47.467Z,38.42
2023-05-27T11:08:47.477Z,42.79
2023-05-27T11:09:47.511Z,53.00
2023-05-27T11:10:47.580Z,52.95
2023-05-27T11:11:47.608Z,47.98
2023-05-27T11:12:47.629Z,39.87
2023-05-27T11:13:48.808Z,43.53
2023-05-27T11:14:47.746Z,54.14
2023-05-27T11:15:47.833Z,60.77
2023-05-27T11:16:47.837Z,61.01
2023-05-27T11:17:47.911Z,54.08
2023-05-27T11:18:47.918Z,49.10
2023-05-27T11:19:47.981Z,47.56
2023-05-27T11:20:48.074Z,43.00
2023-05-27T11:21:47.994Z,39.39
2023-05-27T11:22:48.004Z,37.47
2023-05-27T11:23:48.026Z,42.83
2023-05-27T11:24:47.992Z,42.12
2023-05-27T11:25:48.000Z,36.71
2023-05-27T11:26:47.997Z,24.49
2023-05-27T11:27:48.002Z,25.91
2023-05-27T11:28:48.007Z,35.21
2023-05-27T11:29:47.991Z,27.43
2023-05-27T11:30:49.939Z,29.11
2023-05-27T11:31:48.043Z,29.33
2023-05-27T11:32:49.235Z,29.94
2023-05-27T11:33:48.081Z,31.83
2023-05-27T11:34:48.011Z,31.63
2023-05-27T11:35:48.042Z,34.29
2023-05-27T11:36:47.967Z,33.97
2023-05-27T11:37:47.979Z,34.47
2023-05-27T11:38:50.280Z,28.28
2023-05-27T11:39:47.937Z,28.29
2023-05-27T11:40:47.962Z,28.66
2023-05-27T11:41:47.916Z,26.73
2023-05-27T11:42:48.068Z,5.35
2023-05-27T11:43:47.920Z,3.83
2023-05-27T11:44:47.894Z,27.90
2023-05-27T11:45:47.976Z,40.12
2023-05-27T11:46:47.908Z,43.96
2023-05-27T11:47:47.928Z,21.39
2023-05-27T11:48:47.887Z,17.60
2023-05-27T11:49:47.911Z,31.09
2023-05-27T11:50:47.892Z,33.14
2023-05-27T11:51:47.893Z,27.17
2023-05-27T11:52:47.879Z,26.60
2023-05-27T11:53:47.905Z,16.54
2023-05-27T11:54:57.316Z,29.36
2023-05-27T11:55:49.043Z,29.66
2023-05-27T11:56:47.857Z,29.86
2023-05-27T11:57:47.841Z,29.74
2023-05-27T11:58:47.839Z,22.18
2023-05-27T11:59:47.823Z,9.41
2023-05-27T12:00:47.827Z,26.90
2023-05-27T12:01:47.807Z,37.56
2023-05-27T12:02:47.967Z,40.11
2023-05-27T12:03:47.787Z,39.02
2023-05-27T12:04:47.814Z,38.81
2023-05-27T12:05:47.853Z,39.29
2023-05-27T12:06:47.798Z,40.26
2023-05-27T12:07:48.693Z,35.32
2023-05-27T12:08:47.894Z,34.34
2023-05-27T12:09:47.964Z,41.95
2023-05-27T12:10:47.987Z,38.94
2023-05-27T12:11:48.048Z,33.32
2023-05-27T12:12:48.113Z,46.01
2023-05-27T12:13:48.143Z,49.06
2023-05-27T12:14:48.211Z,49.79
2023-05-27T12:15:48.378Z,50.36
2023-05-27T12:16:48.267Z,42.42
2023-05-27T12:17:48.371Z,41.41
2023-05-27T12:18:48.400Z,45.00
2023-05-27T12:19:48.400Z,46.45
2023-05-27T12:20:48.527Z,50.01
2023-05-27T12:21:48.482Z,51.85
2023-05-27T12:22:48.530Z,46.34
2023-05-27T12:23:48.581Z,36.77
2023-05-27T12:24:48.598Z,29.86
2023-05-27T12:25:48.812Z,23.71
2023-05-27T12:26:48.669Z,25.19
2023-05-27T12:27:48.756Z,35.68
2023-05-27T12:28:48.817Z,43.87
2023-05-27T12:29:48.881Z,37.76
2023-05-27T12:30:48.906Z,32.63
2023-05-27T12:31:48.908Z,36.96
2023-05-27T12:32:48.922Z,42.37
2023-05-27T12:33:48.909Z,45.36
2023-05-27T12:34:48.933Z,42.66
2023-05-27T12:35:49.098Z,44.36
2023-05-27T12:36:48.981Z,27.24
2023-05-27T12:37:49.000Z,26.87
2023-05-27T12:38:48.971Z,28.79